Cold Bay, Alaska
Current Conditions -  °F | °C
As of 7:53 PM on Friday 24 Oct 2014 (Local Time) from PACD Reporting Station
Overcast Overcast  
Wind Chill: 42°   Ceiling: 3800
Heat Index: 44°   Visibility: 10mi
Dew Point: 41°   Wind: 5mph
Humidity: 89%   Direction: 200°SSW
Pressure: 30"   Gusts: NA
Location:  55.18°N, 162.72°W
Report Text: PACD 250353Z AUTO 20004KT 10SM FEW027 BKN038 OVC047 07/05 A3000 RMK AO2 SLP160 T00670050 TSNO
Loading
Personal Weather Stations






























Interactive Weather Map
Tropical Storm Tracking
New forecast layout! Learn more

10-Day Weather Forecast

Advertisements
Track Severe Weather on mobile